createdAt,value
2017-03-07T00:00:54.524Z,4.76
2017-03-07T00:02:07.572Z,4.74
2017-03-07T00:03:20.245Z,4.74
2017-03-07T00:04:32.943Z,4.68
2017-03-07T00:05:46.076Z,4.68
2017-03-07T00:06:59.411Z,4.76
2017-03-07T00:08:12.529Z,4.78
2017-03-07T00:09:25.221Z,4.74
2017-03-07T00:10:38.296Z,4.6
2017-03-07T00:11:51.391Z,4.63
2017-03-07T00:13:04.480Z,4.6
2017-03-07T00:14:17.529Z,4.6
2017-03-07T00:15:29.822Z,4.6
2017-03-07T00:16:42.882Z,4.66
2017-03-07T00:17:55.966Z,4.64
2017-03-07T00:19:08.682Z,4.6
2017-03-07T00:20:21.711Z,4.53
2017-03-07T00:21:34.408Z,4.46
2017-03-07T00:22:47.454Z,4.5
2017-03-07T00:24:00.525Z,4.48
2017-03-07T00:25:13.196Z,4.45
2017-03-07T00:26:26.283Z,4.49
2017-03-07T00:27:39.360Z,4.48
2017-03-07T00:28:52.406Z,4.46
2017-03-07T00:30:05.472Z,4.48
2017-03-07T00:31:18.543Z,4.45
2017-03-07T00:32:31.226Z,4.45
2017-03-07T00:33:43.514Z,4.42
2017-03-07T00:34:56.569Z,4.4
2017-03-07T00:36:09.633Z,4.42
2017-03-07T00:37:21.894Z,4.39
2017-03-07T00:38:34.977Z,4.28
2017-03-07T00:39:48.286Z,4.32
2017-03-07T00:41:01.324Z,4.42
2017-03-07T00:42:13.990Z,4.38
2017-03-07T00:43:26.677Z,4.31
2017-03-07T00:44:39.752Z,4.34
2017-03-07T00:45:52.824Z,4.45
2017-03-07T00:47:05.869Z,4.36
2017-03-07T00:48:18.965Z,4.31
2017-03-07T00:49:32.031Z,4.3
2017-03-07T00:50:45.086Z,4.32
2017-03-07T00:51:58.174Z,4.31
2017-03-07T00:53:11.244Z,4.3
2017-03-07T00:54:24.294Z,4.4
2017-03-07T00:55:37.340Z,4.38
2017-03-07T00:56:50.389Z,4.39
2017-03-07T00:58:03.507Z,4.31
2017-03-07T00:59:16.620Z,4.27
2017-03-07T01:00:29.341Z,4.39
2017-03-07T01:01:42.369Z,4.32
2017-03-07T01:02:55.444Z,4.34
2017-03-07T01:04:08.486Z,4.39
2017-03-07T01:05:21.515Z,4.34
2017-03-07T01:06:34.557Z,4.25
2017-03-07T01:07:47.620Z,4.22
2017-03-07T01:09:00.724Z,4.27
2017-03-07T01:10:13.419Z,4.3
2017-03-07T01:11:26.463Z,4.28
2017-03-07T01:12:39.185Z,4.24
2017-03-07T01:13:51.857Z,4.31
2017-03-07T01:15:04.925Z,4.25
2017-03-07T01:16:17.970Z,4.25
2017-03-07T01:17:30.633Z,4.22
2017-03-07T01:18:43.666Z,4.27
2017-03-07T01:19:56.715Z,4.27
2017-03-07T01:21:09.950Z,4.3
2017-03-07T01:22:23.042Z,4.27
2017-03-07T01:23:35.724Z,4.25
2017-03-07T01:24:48.809Z,4.18
2017-03-07T01:26:01.837Z,4.27
2017-03-07T01:27:14.912Z,4.16
2017-03-07T01:28:28.203Z,4.31
2017-03-07T01:29:41.276Z,4.28
2017-03-07T01:30:53.923Z,4.24
2017-03-07T01:32:07.009Z,4.32
2017-03-07T01:33:20.087Z,4.31
2017-03-07T01:34:33.138Z,4.31
2017-03-07T01:35:46.197Z,4.28
2017-03-07T01:36:59.245Z,4.27
2017-03-07T01:38:12.380Z,4.27
2017-03-07T01:39:25.484Z,4.21
2017-03-07T01:40:38.530Z,4.25
2017-03-07T01:41:51.561Z,4.24
2017-03-07T01:43:04.625Z,4.2
2017-03-07T01:44:17.668Z,4.24
2017-03-07T01:45:30.700Z,4.22
2017-03-07T01:46:43.772Z,4.22
2017-03-07T01:47:56.834Z,4.22
2017-03-07T01:49:09.926Z,4.2
2017-03-07T01:50:22.979Z,4.2
2017-03-07T01:51:35.280Z,4.25
2017-03-07T01:52:48.350Z,4.2
2017-03-07T01:54:01.472Z,4.13
2017-03-07T01:55:14.543Z,4.21
2017-03-07T01:56:27.584Z,4.12
2017-03-07T01:57:40.636Z,4.03
2017-03-07T01:58:53.676Z,4.04
2017-03-07T02:00:06.722Z,4.04
2017-03-07T02:01:19.821Z,4.02
2017-03-07T02:02:32.889Z,4.02
2017-03-07T02:03:45.588Z,4.07
2017-03-07T02:04:58.656Z,4.03
2017-03-07T02:06:11.704Z,4.03
2017-03-07T02:07:24.747Z,4.09
2017-03-07T02:08:37.845Z,4.06
2017-03-07T02:09:50.907Z,4.06
2017-03-07T02:11:03.988Z,4.07
2017-03-07T02:12:17.077Z,4.07
2017-03-07T02:13:30.152Z,4.07
2017-03-07T02:14:43.198Z,4.03
2017-03-07T02:15:56.239Z,4.06
2017-03-07T02:17:09.571Z,4.02
2017-03-07T02:18:22.681Z,4
2017-03-07T02:19:35.776Z,4.02
2017-03-07T02:20:48.830Z,4.02
2017-03-07T02:22:01.898Z,3.99
2017-03-07T02:23:14.998Z,4
2017-03-07T02:24:28.064Z,4.02
2017-03-07T02:25:41.114Z,3.99
2017-03-07T02:26:54.189Z,4.03
2017-03-07T02:28:07.307Z,4
2017-03-07T02:29:20.427Z,4.04
2017-03-07T02:30:33.500Z,4
2017-03-07T02:31:46.565Z,4
2017-03-07T02:32:59.629Z,4.04
2017-03-07T02:34:12.689Z,4.03
2017-03-07T02:35:25.759Z,4.03
2017-03-07T02:36:38.844Z,3.88
2017-03-07T02:37:51.962Z,3.92
2017-03-07T02:39:04.990Z,3.99
2017-03-07T02:40:18.066Z,3.99
2017-03-07T02:41:31.127Z,3.85
2017-03-07T02:42:43.399Z,3.85
2017-03-07T02:43:56.449Z,3.86
2017-03-07T02:45:09.512Z,3.86
2017-03-07T02:46:22.561Z,3.94
2017-03-07T02:47:35.636Z,3.96
2017-03-07T02:48:48.682Z,3.84
2017-03-07T02:50:01.799Z,3.85
2017-03-07T02:51:14.491Z,3.84
2017-03-07T02:52:27.590Z,3.86
2017-03-07T02:53:40.646Z,3.82
2017-03-07T02:54:53.314Z,3.81
2017-03-07T02:56:06.357Z,3.84
2017-03-07T02:57:19.028Z,3.78
2017-03-07T02:58:32.129Z,3.76
2017-03-07T02:59:45.191Z,3.76
2017-03-07T03:00:58.245Z,3.71
2017-03-07T03:02:11.292Z,3.74
2017-03-07T03:03:24.339Z,3.74
2017-03-07T03:04:37.424Z,3.71
2017-03-07T03:05:50.483Z,3.67
2017-03-07T03:07:03.519Z,3.68
2017-03-07T03:08:16.167Z,3.73
2017-03-07T03:09:29.239Z,3.64
2017-03-07T03:10:41.926Z,3.64
2017-03-07T03:11:54.971Z,3.64
2017-03-07T03:13:08.081Z,3.64
2017-03-07T03:14:21.171Z,3.61
2017-03-07T03:15:34.241Z,3.58
2017-03-07T03:16:47.315Z,3.59
2017-03-07T03:18:00.012Z,3.49
2017-03-07T03:19:12.707Z,3.49
2017-03-07T03:20:25.381Z,3.46
2017-03-07T03:21:38.463Z,3.45
2017-03-07T03:22:51.496Z,3.37
2017-03-07T03:24:04.189Z,3.41
2017-03-07T03:25:16.886Z,3.3
2017-03-07T03:26:29.963Z,3.27
2017-03-07T03:27:43.005Z,3.26
2017-03-07T03:28:55.721Z,3.34
2017-03-07T03:30:08.397Z,3.24
2017-03-07T03:31:21.505Z,3.26
2017-03-07T03:32:34.163Z,3.11
2017-03-07T03:33:47.207Z,3.18
2017-03-07T03:35:00.256Z,3.09
2017-03-07T03:36:13.347Z,3.06
2017-03-07T03:37:26.393Z,3.08
2017-03-07T03:38:39.119Z,2.98
2017-03-07T03:39:52.187Z,3.03
2017-03-07T03:41:05.212Z,2.97
2017-03-07T03:42:18.281Z,2.94
2017-03-07T03:43:30.968Z,2.94
2017-03-07T03:44:44.060Z,2.88
2017-03-07T03:45:57.092Z,2.85
2017-03-07T03:47:10.152Z,2.87
2017-03-07T03:48:23.234Z,2.79
2017-03-07T03:49:36.279Z,2.76
2017-03-07T03:50:49.353Z,2.69
2017-03-07T03:52:02.418Z,2.62
2017-03-07T03:53:15.468Z,2.58
2017-03-07T03:54:28.139Z,2.58
2017-03-07T03:55:41.180Z,2.43
2017-03-07T03:56:54.279Z,2.55
2017-03-07T03:58:07.368Z,2.43
2017-03-07T03:59:20.067Z,2.37
2017-03-07T04:00:32.365Z,2.3
2017-03-07T04:01:45.041Z,2.33
2017-03-07T04:02:58.126Z,2.26
2017-03-07T04:04:11.202Z,2.21
2017-03-07T04:05:23.922Z,2.21
2017-03-07T04:06:37.039Z,2.08
2017-03-07T04:07:50.117Z,2.12
2017-03-07T04:09:03.205Z,1.98
2017-03-07T04:10:16.253Z,1.88
2017-03-07T04:11:28.956Z,1.86
2017-03-07T04:12:41.644Z,1.7
2017-03-07T04:13:54.674Z,1.63
2017-03-07T04:15:07.785Z,1.53
2017-03-07T04:16:20.882Z,1.43
2017-03-07T04:17:33.960Z,1.42
2017-03-07T04:18:47.011Z,1.25
2017-03-07T04:19:59.680Z,1.27
2017-03-07T04:21:12.753Z,1.28
2017-03-07T04:22:25.070Z,1.22
2017-03-07T04:23:38.167Z,1.24
2017-03-07T04:24:51.214Z,1.14
2017-03-07T04:26:04.323Z,1.03
2017-03-07T04:27:17.019Z,1.07
2017-03-07T04:28:30.087Z,1.2
2017-03-07T04:29:43.165Z,1.25
2017-03-07T04:30:56.237Z,1.14
2017-03-07T04:32:09.338Z,1.12
2017-03-07T04:33:22.382Z,1.2
2017-03-07T04:34:35.478Z,1.18
2017-03-07T04:35:48.544Z,1.27
2017-03-07T04:37:01.611Z,1.2
2017-03-07T04:38:14.714Z,1.22
2017-03-07T04:39:27.761Z,1.28
2017-03-07T04:40:40.849Z,1.31
2017-03-07T04:41:53.920Z,1.3
2017-03-07T04:43:06.622Z,1.28
2017-03-07T04:44:19.695Z,1.38
2017-03-07T04:45:32.366Z,1.38
2017-03-07T04:46:45.437Z,1.31
2017-03-07T04:47:58.504Z,1.36
2017-03-07T04:49:11.555Z,1.42
2017-03-07T04:50:24.570Z,1.48
2017-03-07T04:51:37.625Z,1.48
2017-03-07T04:52:50.691Z,1.53
2017-03-07T04:54:03.383Z,1.5
2017-03-07T04:55:16.678Z,1.6
2017-03-07T04:56:29.756Z,1.61
2017-03-07T04:57:42.820Z,1.71
2017-03-07T04:58:55.897Z,1.64
2017-03-07T05:00:08.558Z,1.58
2017-03-07T05:01:21.616Z,1.68
2017-03-07T05:02:34.679Z,1.7
2017-03-07T05:03:47.742Z,1.78
2017-03-07T05:05:00.776Z,1.75
2017-03-07T05:06:13.445Z,1.71
2017-03-07T05:07:26.516Z,1.82
2017-03-07T05:08:39.558Z,1.85
2017-03-07T05:09:52.621Z,1.81
2017-03-07T05:11:05.693Z,1.88
2017-03-07T05:12:18.721Z,1.86
2017-03-07T05:13:31.442Z,1.85
2017-03-07T05:14:44.113Z,1.82
2017-03-07T05:15:57.163Z,1.81
2017-03-07T05:17:10.259Z,1.76
2017-03-07T05:18:23.328Z,1.78
2017-03-07T05:19:35.621Z,1.68
2017-03-07T05:20:48.670Z,1.7
2017-03-07T05:22:01.767Z,1.74
2017-03-07T05:23:14.865Z,1.76
2017-03-07T05:24:27.576Z,1.68
2017-03-07T05:25:40.632Z,1.7
2017-03-07T05:26:53.702Z,1.75
2017-03-07T05:28:06.639Z,1.7
2017-03-07T05:29:19.705Z,1.63
2017-03-07T05:30:32.361Z,1.74
2017-03-07T05:31:45.447Z,1.78
2017-03-07T05:32:58.543Z,1.76
2017-03-07T05:34:11.596Z,1.78
2017-03-07T05:35:24.247Z,1.75
2017-03-07T05:36:37.293Z,1.79
2017-03-07T05:37:50.362Z,1.81
2017-03-07T05:39:03.406Z,1.88
2017-03-07T05:40:16.447Z,1.81
2017-03-07T05:41:29.547Z,1.79
2017-03-07T05:42:42.610Z,1.89
2017-03-07T05:43:55.692Z,1.89
2017-03-07T05:45:09.034Z,1.89
2017-03-07T05:46:22.084Z,1.89
2017-03-07T05:47:35.172Z,1.98
2017-03-07T05:48:48.300Z,1.98
2017-03-07T05:50:01.403Z,2.04
2017-03-07T05:51:14.065Z,2.03
2017-03-07T05:52:26.756Z,2.03
2017-03-07T05:53:39.881Z,2.01
2017-03-07T05:54:52.926Z,2.04
2017-03-07T05:56:05.975Z,2.07
2017-03-07T05:57:19.039Z,2.03
2017-03-07T05:58:31.693Z,1.98
2017-03-07T05:59:44.763Z,2.01
2017-03-07T06:00:57.481Z,2.08
2017-03-07T06:02:10.223Z,2.08
2017-03-07T06:03:23.272Z,2.15
2017-03-07T06:04:35.944Z,2.12
2017-03-07T06:05:49.014Z,2.08
2017-03-07T06:07:01.703Z,2.1
2017-03-07T06:08:14.764Z,2.1
2017-03-07T06:09:27.811Z,2.12
2017-03-07T06:10:40.865Z,2.25
2017-03-07T06:11:54.171Z,2.28
2017-03-07T06:13:07.236Z,2.23
2017-03-07T06:14:19.987Z,2.23
2017-03-07T06:15:33.035Z,2.23
2017-03-07T06:16:46.094Z,2.19
2017-03-07T06:17:59.123Z,2.22
2017-03-07T06:19:12.149Z,2.22
2017-03-07T06:20:24.820Z,2.3
2017-03-07T06:21:37.864Z,2.36
2017-03-07T06:22:50.927Z,2.26
2017-03-07T06:24:03.970Z,2.37
2017-03-07T06:25:17.077Z,2.36
2017-03-07T06:26:30.112Z,2.41
2017-03-07T06:27:43.165Z,2.44
2017-03-07T06:28:56.211Z,2.37
2017-03-07T06:30:08.891Z,2.39
2017-03-07T06:31:21.656Z,2.37
2017-03-07T06:32:34.733Z,2.44
2017-03-07T06:33:47.400Z,2.39
2017-03-07T06:35:00.493Z,2.43
2017-03-07T06:36:12.754Z,2.41
2017-03-07T06:37:25.434Z,2.37
2017-03-07T06:38:38.479Z,2.43
2017-03-07T06:39:51.153Z,2.52
2017-03-07T06:41:04.249Z,2.51
2017-03-07T06:42:17.319Z,2.55
2017-03-07T06:43:30.015Z,2.51
2017-03-07T06:44:43.089Z,2.5
2017-03-07T06:45:56.139Z,2.57
2017-03-07T06:47:09.299Z,2.5
2017-03-07T06:48:22.375Z,2.5
2017-03-07T06:49:35.445Z,2.46
2017-03-07T06:50:48.521Z,2.52
2017-03-07T06:52:01.580Z,2.51
2017-03-07T06:53:14.671Z,2.51
2017-03-07T06:54:27.376Z,2.51
2017-03-07T06:55:40.054Z,2.5
2017-03-07T06:56:53.095Z,2.47
2017-03-07T06:58:06.162Z,2.43
2017-03-07T06:59:19.210Z,2.54
2017-03-07T07:00:32.304Z,2.46
2017-03-07T07:01:44.624Z,2.47
2017-03-07T07:02:57.687Z,2.47
2017-03-07T07:04:10.747Z,2.57
2017-03-07T07:05:23.834Z,2.58
2017-03-07T07:06:36.533Z,2.51
2017-03-07T07:07:49.221Z,2.5
2017-03-07T07:09:02.325Z,2.52
2017-03-07T07:10:15.370Z,2.62
2017-03-07T07:11:28.441Z,2.58
2017-03-07T07:12:41.516Z,2.64
2017-03-07T07:13:54.587Z,2.62
2017-03-07T07:15:07.629Z,2.61
2017-03-07T07:16:20.700Z,2.65
2017-03-07T07:17:32.979Z,2.65
2017-03-07T07:18:46.020Z,2.65
2017-03-07T07:19:59.098Z,2.73
2017-03-07T07:21:12.154Z,2.62
2017-03-07T07:22:25.483Z,2.64
2017-03-07T07:23:38.550Z,2.62
2017-03-07T07:24:51.202Z,2.7
2017-03-07T07:26:03.872Z,2.64
2017-03-07T07:27:16.587Z,2.64
2017-03-07T07:28:29.684Z,2.65
2017-03-07T07:29:42.358Z,2.65
2017-03-07T07:30:55.404Z,2.68
2017-03-07T07:32:08.474Z,2.68
2017-03-07T07:33:21.167Z,2.7
2017-03-07T07:34:34.281Z,2.59
2017-03-07T07:35:46.934Z,2.69
2017-03-07T07:36:59.987Z,2.69
2017-03-07T07:38:13.053Z,2.62
2017-03-07T07:39:25.376Z,2.69
2017-03-07T07:40:38.442Z,2.7
2017-03-07T07:41:51.505Z,2.7
2017-03-07T07:43:04.577Z,2.72
2017-03-07T07:44:17.700Z,2.7
2017-03-07T07:45:30.051Z,2.69
2017-03-07T07:46:43.126Z,2.72
2017-03-07T07:47:56.195Z,2.72
2017-03-07T07:49:09.267Z,2.72
2017-03-07T07:50:22.387Z,2.7
2017-03-07T07:51:35.076Z,2.77
2017-03-07T07:52:48.118Z,2.73
2017-03-07T07:54:00.791Z,2.64
2017-03-07T07:55:13.120Z,2.64
2017-03-07T07:56:26.184Z,2.69
2017-03-07T07:57:39.239Z,2.7
2017-03-07T07:58:52.313Z,2.64
2017-03-07T08:00:05.393Z,2.65
2017-03-07T08:01:18.100Z,2.68
2017-03-07T08:02:31.189Z,2.72
2017-03-07T08:03:43.885Z,2.72
2017-03-07T08:04:56.981Z,2.65
2017-03-07T08:06:10.055Z,2.7
2017-03-07T08:07:23.102Z,2.73
2017-03-07T08:08:35.404Z,2.73
2017-03-07T08:09:48.439Z,2.73
2017-03-07T08:11:01.570Z,2.75
2017-03-07T08:12:14.628Z,2.75
2017-03-07T08:13:27.756Z,2.77
2017-03-07T08:14:40.827Z,2.76
2017-03-07T08:15:53.493Z,2.76
2017-03-07T08:17:05.769Z,2.82
2017-03-07T08:18:18.844Z,2.8
2017-03-07T08:19:31.911Z,2.83
2017-03-07T08:20:44.590Z,2.76
2017-03-07T08:21:57.256Z,2.8
2017-03-07T08:23:10.391Z,2.73
2017-03-07T08:24:23.500Z,2.8
2017-03-07T08:25:36.518Z,2.8
2017-03-07T08:26:49.236Z,2.75
2017-03-07T08:28:02.286Z,2.76
2017-03-07T08:29:15.329Z,2.73
2017-03-07T08:30:28.431Z,2.75
2017-03-07T08:31:41.494Z,2.83
2017-03-07T08:32:54.194Z,2.87
2017-03-07T08:34:07.265Z,2.76
2017-03-07T08:35:20.356Z,2.73
2017-03-07T08:36:33.402Z,2.8
2017-03-07T08:37:46.466Z,2.8
2017-03-07T08:38:59.143Z,2.82
2017-03-07T08:40:11.483Z,2.75
2017-03-07T08:41:24.545Z,2.88
2017-03-07T08:42:37.250Z,2.88
2017-03-07T08:43:49.921Z,2.88
2017-03-07T08:45:02.995Z,2.9
2017-03-07T08:46:16.070Z,2.8
2017-03-07T08:47:29.124Z,2.82
2017-03-07T08:48:42.169Z,2.87
2017-03-07T08:49:55.236Z,2.87
2017-03-07T08:51:08.328Z,2.98
2017-03-07T08:52:21.424Z,2.94
2017-03-07T08:53:33.696Z,2.95
2017-03-07T08:54:46.819Z,2.94
2017-03-07T08:55:59.494Z,3
2017-03-07T08:57:12.532Z,2.95
2017-03-07T08:58:25.228Z,2.94
2017-03-07T08:59:38.305Z,3.06
2017-03-07T09:00:51.364Z,3.03
2017-03-07T09:02:04.417Z,3.03
2017-03-07T09:03:17.091Z,3.12
2017-03-07T09:04:30.152Z,3.15
2017-03-07T09:05:43.246Z,3.24
2017-03-07T09:06:56.283Z,3.31
2017-03-07T09:08:09.347Z,3.31
2017-03-07T09:09:22.396Z,3.34
2017-03-07T09:10:35.114Z,3.43
2017-03-07T09:11:48.188Z,3.4
2017-03-07T09:13:01.284Z,3.48
2017-03-07T09:14:14.400Z,3.59
2017-03-07T09:15:27.451Z,3.55
2017-03-07T09:16:39.721Z,3.7
2017-03-07T09:17:52.783Z,3.66
2017-03-07T09:19:05.861Z,3.71
2017-03-07T09:20:18.955Z,3.64
2017-03-07T09:21:32.026Z,3.71
2017-03-07T09:22:44.592Z,3.78
2017-03-07T09:23:57.684Z,3.68
2017-03-07T09:25:10.741Z,3.59
2017-03-07T09:26:23.812Z,3.63
2017-03-07T09:27:36.508Z,3.67
2017-03-07T09:28:49.600Z,3.63
2017-03-07T09:30:02.700Z,3.61
2017-03-07T09:31:15.360Z,3.64
2017-03-07T09:32:28.417Z,3.59
2017-03-07T09:33:41.464Z,3.67
2017-03-07T09:34:54.507Z,3.63
2017-03-07T09:36:07.551Z,3.64
2017-03-07T09:37:20.218Z,3.53
2017-03-07T09:38:33.272Z,3.5
2017-03-07T09:39:46.342Z,3.5
2017-03-07T09:40:59.431Z,3.49
2017-03-07T09:42:12.501Z,3.52
2017-03-07T09:43:25.579Z,3.5
2017-03-07T09:44:38.650Z,3.49
2017-03-07T09:45:51.698Z,3.61
2017-03-07T09:47:04.767Z,3.53
2017-03-07T09:48:17.841Z,3.66
2017-03-07T09:49:30.938Z,3.71
2017-03-07T09:50:44.023Z,3.78
2017-03-07T09:51:57.105Z,3.84
2017-03-07T09:53:10.193Z,3.85
2017-03-07T09:54:23.242Z,3.92
2017-03-07T09:55:36.314Z,3.85
2017-03-07T09:56:49.377Z,3.94
2017-03-07T09:58:02.481Z,3.92
2017-03-07T09:59:15.193Z,4.03
2017-03-07T10:00:28.264Z,4.02
2017-03-07T10:01:40.964Z,4.1
2017-03-07T10:02:54.028Z,4.16
2017-03-07T10:04:06.711Z,4.02
2017-03-07T10:05:19.411Z,4.12
2017-03-07T10:06:32.454Z,4.16
2017-03-07T10:07:45.144Z,4.04
2017-03-07T10:08:58.215Z,4.03
2017-03-07T10:10:11.263Z,4.04
2017-03-07T10:11:24.335Z,4.02
2017-03-07T10:12:37.027Z,4.02
2017-03-07T10:13:50.078Z,4.02
2017-03-07T10:15:03.140Z,3.92
2017-03-07T10:16:16.165Z,3.84
2017-03-07T10:17:29.511Z,3.84
2017-03-07T10:18:42.580Z,3.84
2017-03-07T10:19:55.657Z,3.74
2017-03-07T10:21:08.342Z,3.82
2017-03-07T10:22:21.012Z,3.71
2017-03-07T10:23:34.095Z,3.74
2017-03-07T10:24:46.787Z,3.78
2017-03-07T10:25:59.449Z,3.78
2017-03-07T10:27:12.503Z,3.71
2017-03-07T10:28:25.602Z,3.68
2017-03-07T10:29:38.663Z,3.7
2017-03-07T10:30:51.708Z,3.59
2017-03-07T10:32:04.391Z,3.63
2017-03-07T10:33:17.432Z,3.53
2017-03-07T10:34:30.511Z,3.49
2017-03-07T10:35:43.204Z,3.48
2017-03-07T10:36:56.266Z,3.52
2017-03-07T10:38:08.569Z,3.49
2017-03-07T10:39:21.608Z,3.49
2017-03-07T10:40:34.663Z,3.49
2017-03-07T10:41:47.724Z,3.49
2017-03-07T10:43:00.749Z,3.4
2017-03-07T10:44:13.429Z,3.49
2017-03-07T10:45:26.470Z,3.41
2017-03-07T10:46:39.568Z,3.46
2017-03-07T10:47:52.675Z,3.43
2017-03-07T10:49:05.783Z,3.49
2017-03-07T10:50:18.866Z,3.5
2017-03-07T10:51:31.541Z,3.48
2017-03-07T10:52:44.645Z,3.5
2017-03-07T10:53:57.717Z,3.49
2017-03-07T10:55:10.808Z,3.46
2017-03-07T10:56:23.858Z,3.49
2017-03-07T10:57:36.930Z,3.61
2017-03-07T10:58:50.023Z,3.49
2017-03-07T11:00:03.111Z,3.52
2017-03-07T11:01:15.816Z,3.53
2017-03-07T11:02:28.907Z,3.5
2017-03-07T11:03:41.583Z,3.66
2017-03-07T11:04:54.654Z,3.52
2017-03-07T11:06:07.347Z,3.64
2017-03-07T11:07:20.440Z,3.61
2017-03-07T11:08:33.487Z,3.7
2017-03-07T11:09:46.205Z,3.76
2017-03-07T11:10:59.279Z,3.73
2017-03-07T11:12:12.327Z,3.71
2017-03-07T11:13:25.414Z,3.67
2017-03-07T11:14:38.470Z,3.81
2017-03-07T11:15:50.791Z,3.73
2017-03-07T11:17:03.862Z,3.78
2017-03-07T11:18:16.531Z,3.77
2017-03-07T11:19:29.277Z,3.84
2017-03-07T11:20:42.316Z,3.84
2017-03-07T11:21:54.967Z,3.85
2017-03-07T11:23:08.013Z,3.92
2017-03-07T11:24:21.081Z,4.03
2017-03-07T11:25:34.110Z,3.95
2017-03-07T11:26:46.404Z,4.02
2017-03-07T11:27:59.146Z,4.02
2017-03-07T11:29:12.217Z,4.1
2017-03-07T11:30:25.333Z,4.03
2017-03-07T11:31:38.405Z,4.04
2017-03-07T11:32:51.506Z,4.12
2017-03-07T11:34:04.154Z,4.14
2017-03-07T11:35:17.195Z,4.06
2017-03-07T11:36:30.265Z,4.04
2017-03-07T11:37:42.942Z,4.1
2017-03-07T11:38:56.081Z,4.09
2017-03-07T11:40:09.181Z,4.1
2017-03-07T11:41:22.254Z,3.99
2017-03-07T11:42:35.352Z,4.09
2017-03-07T11:43:48.043Z,4.04
2017-03-07T11:45:01.117Z,4
2017-03-07T11:46:14.206Z,4.06
2017-03-07T11:47:26.528Z,4.1
2017-03-07T11:48:39.202Z,4
2017-03-07T11:49:52.325Z,4.02
2017-03-07T11:51:05.468Z,3.99
2017-03-07T11:52:18.566Z,4.04
2017-03-07T11:53:30.888Z,3.92
2017-03-07T11:54:43.980Z,3.96
2017-03-07T11:55:56.301Z,3.86
2017-03-07T11:57:08.973Z,3.84
2017-03-07T11:58:22.039Z,3.82
2017-03-07T11:59:35.135Z,3.81
2017-03-07T12:00:47.814Z,3.78
2017-03-07T12:02:00.902Z,3.82
2017-03-07T12:03:14.002Z,3.89
2017-03-07T12:04:27.051Z,3.78
2017-03-07T12:05:40.164Z,3.74
2017-03-07T12:06:52.846Z,3.85
2017-03-07T12:08:05.536Z,3.71
2017-03-07T12:09:18.587Z,3.76
2017-03-07T12:10:31.303Z,3.82
2017-03-07T12:11:43.996Z,3.82
2017-03-07T12:12:57.062Z,3.81
2017-03-07T12:14:10.146Z,3.77
2017-03-07T12:15:23.221Z,3.77
2017-03-07T12:16:35.875Z,3.81
2017-03-07T12:17:48.545Z,3.84
2017-03-07T12:19:01.593Z,3.85
2017-03-07T12:20:14.649Z,3.82
2017-03-07T12:21:27.693Z,3.85
2017-03-07T12:22:40.782Z,3.89
2017-03-07T12:23:53.899Z,3.94
2017-03-07T12:25:06.976Z,3.95
2017-03-07T12:26:20.052Z,3.94
2017-03-07T12:27:33.174Z,3.92
2017-03-07T12:28:45.844Z,3.91
2017-03-07T12:29:58.936Z,4.03
2017-03-07T12:31:11.608Z,4.04
2017-03-07T12:32:24.656Z,4.02
2017-03-07T12:33:37.342Z,4.1
2017-03-07T12:34:50.466Z,4.06
2017-03-07T12:36:03.534Z,4.1
2017-03-07T12:37:16.632Z,4.02
2017-03-07T12:38:28.926Z,4.04
2017-03-07T12:39:41.607Z,4.1
2017-03-07T12:40:54.300Z,4.12
2017-03-07T12:42:07.371Z,4.18
2017-03-07T12:43:20.419Z,4.06
2017-03-07T12:44:32.684Z,4.13
2017-03-07T12:45:44.958Z,4.22
2017-03-07T12:46:58.029Z,4.22
2017-03-07T12:48:10.728Z,4.25
2017-03-07T12:49:23.046Z,4.22
2017-03-07T12:50:36.117Z,4.28
2017-03-07T12:51:49.192Z,4.24
2017-03-07T12:53:02.330Z,4.25
2017-03-07T12:54:15.412Z,4.31
2017-03-07T12:55:28.454Z,4.3
2017-03-07T12:56:41.122Z,4.18
2017-03-07T12:57:53.792Z,4.28
2017-03-07T12:59:06.867Z,4.32
2017-03-07T13:00:19.961Z,4.27
2017-03-07T13:01:33.036Z,4.2
2017-03-07T13:02:46.105Z,4.25
2017-03-07T13:03:59.140Z,4.28
2017-03-07T13:05:12.221Z,4.31
2017-03-07T13:06:25.309Z,4.22
2017-03-07T13:07:38.402Z,4.28
2017-03-07T13:08:50.704Z,4.25
2017-03-07T13:10:03.795Z,4.24
2017-03-07T13:11:16.501Z,4.39
2017-03-07T13:12:29.572Z,4.31
2017-03-07T13:13:42.992Z,4.39
2017-03-07T13:14:55.355Z,4.31
2017-03-07T13:16:08.608Z,4.36
2017-03-07T13:17:21.372Z,4.28
2017-03-07T13:18:33.704Z,4.38
2017-03-07T13:19:46.775Z,4.36
2017-03-07T13:20:59.444Z,4.34
2017-03-07T13:22:12.126Z,4.32
2017-03-07T13:23:25.240Z,4.31
2017-03-07T13:24:37.947Z,4.4
2017-03-07T13:25:51.015Z,4.39
2017-03-07T13:27:03.685Z,4.45
2017-03-07T13:28:16.367Z,4.46
2017-03-07T13:29:29.456Z,4.42
2017-03-07T13:30:42.506Z,4.43
2017-03-07T13:31:55.194Z,4.58
2017-03-07T13:33:08.251Z,4.48
2017-03-07T13:34:21.340Z,4.49
2017-03-07T13:35:34.399Z,4.46
2017-03-07T13:36:47.084Z,4.49
2017-03-07T13:37:59.774Z,4.43
2017-03-07T13:39:12.869Z,4.45
2017-03-07T13:40:25.973Z,4.32
2017-03-07T13:41:38.637Z,4.43
2017-03-07T13:42:51.332Z,4.43
2017-03-07T13:44:04.386Z,4.39
2017-03-07T13:45:17.452Z,4.4
2017-03-07T13:46:29.746Z,4.4
2017-03-07T13:47:42.801Z,4.4
2017-03-07T13:48:55.900Z,4.36
2017-03-07T13:50:08.965Z,4.3
2017-03-07T13:51:21.642Z,4.3
2017-03-07T13:52:34.724Z,4.32
2017-03-07T13:53:47.799Z,4.36
2017-03-07T13:55:00.507Z,4.3
2017-03-07T13:56:13.569Z,4.32
2017-03-07T13:57:25.958Z,4.36
2017-03-07T13:58:38.660Z,4.32
2017-03-07T13:59:51.658Z,4.27
2017-03-07T14:01:04.681Z,4.31
2017-03-07T14:02:17.349Z,4.36
2017-03-07T14:03:30.403Z,4.21
2017-03-07T14:04:43.458Z,4.38
2017-03-07T14:05:56.532Z,4.24
2017-03-07T14:07:09.588Z,4.27
2017-03-07T14:08:22.662Z,4.34
2017-03-07T14:09:35.727Z,4.31
2017-03-07T14:10:48.424Z,4.4
2017-03-07T14:12:01.141Z,4.3
2017-03-07T14:13:13.819Z,4.42
2017-03-07T14:14:26.925Z,4.39
2017-03-07T14:15:39.225Z,4.36
2017-03-07T14:16:51.166Z,4.45
2017-03-07T14:18:03.849Z,4.46
2017-03-07T14:19:16.916Z,4.58
2017-03-07T14:20:29.593Z,4.49
2017-03-07T14:21:42.275Z,4.63
2017-03-07T14:22:54.934Z,4.61
2017-03-07T14:24:08.031Z,4.71
2017-03-07T14:25:20.766Z,4.68
2017-03-07T14:26:33.796Z,4.76
2017-03-07T14:27:46.067Z,4.71
2017-03-07T14:28:58.767Z,4.75
2017-03-07T14:30:11.879Z,4.86
2017-03-07T14:31:24.542Z,4.94
2017-03-07T14:32:37.847Z,4.83
2017-03-07T14:33:50.892Z,4.9
2017-03-07T14:35:04.009Z,4.89
2017-03-07T14:36:16.709Z,4.95
2017-03-07T14:37:29.759Z,4.95
2017-03-07T14:38:43.103Z,5.04
2017-03-07T14:39:55.821Z,4.98
2017-03-07T14:41:08.522Z,5.01
2017-03-07T14:42:21.584Z,5.07
2017-03-07T14:44:46.954Z,5.08
2017-03-07T14:46:00.039Z,4.98
2017-03-07T14:47:13.101Z,4.97
2017-03-07T14:48:25.793Z,5
2017-03-07T14:49:38.488Z,4.98
2017-03-07T14:50:51.565Z,5.04
2017-03-07T14:52:03.927Z,4.95
2017-03-07T14:53:16.629Z,5.01
2017-03-07T14:54:29.707Z,5.01
2017-03-07T14:55:42.811Z,4.97
2017-03-07T14:56:55.530Z,5.01
2017-03-07T14:58:08.260Z,4.95
2017-03-07T14:59:20.977Z,5.08
2017-03-07T15:00:33.673Z,4.97
2017-03-07T15:01:46.331Z,5
2017-03-07T15:02:59.422Z,5.01
2017-03-07T15:04:12.093Z,5.05
2017-03-07T15:05:25.164Z,5.02
2017-03-07T15:06:37.806Z,5.01
2017-03-07T15:07:50.481Z,5.05
2017-03-07T15:09:03.126Z,5.08
2017-03-07T15:10:16.177Z,4.95
2017-03-07T15:11:28.465Z,5.04
2017-03-07T15:12:41.536Z,5
2017-03-07T15:13:54.631Z,4.94
2017-03-07T15:15:06.935Z,5.04
2017-03-07T15:16:19.596Z,5.07
2017-03-07T15:17:30.796Z,4.95
2017-03-07T15:18:43.487Z,4.95
2017-03-07T15:19:56.641Z,4.9
2017-03-07T15:21:09.785Z,4.98
2017-03-07T15:22:22.852Z,4.89
2017-03-07T15:23:35.533Z,4.9
2017-03-07T15:24:48.224Z,4.82
2017-03-07T15:26:00.890Z,4.89
2017-03-07T15:27:13.937Z,4.92
2017-03-07T15:28:27.032Z,4.84
2017-03-07T15:29:40.130Z,4.86
2017-03-07T15:30:52.080Z,4.75
2017-03-07T15:32:05.163Z,4.82
2017-03-07T15:33:18.216Z,4.7
2017-03-07T15:34:30.507Z,4.71
2017-03-07T15:35:43.579Z,4.7
2017-03-07T15:36:56.233Z,4.7
2017-03-07T15:38:08.917Z,4.75
2017-03-07T15:39:21.591Z,4.75
2017-03-07T15:40:33.519Z,4.75
2017-03-07T15:41:46.590Z,4.76
2017-03-07T15:42:59.686Z,4.7
2017-03-07T15:44:12.396Z,4.75
2017-03-07T15:45:25.446Z,4.75
2017-03-07T15:46:38.121Z,4.74
2017-03-07T15:47:50.408Z,4.74
2017-03-07T15:49:03.508Z,4.75
2017-03-07T15:50:16.566Z,4.63
2017-03-07T15:51:29.654Z,4.71
2017-03-07T15:52:42.744Z,4.6
2017-03-07T15:53:55.800Z,4.61
2017-03-07T15:55:08.859Z,4.63
2017-03-07T15:56:21.154Z,4.63
2017-03-07T15:57:34.200Z,4.6
2017-03-07T15:58:46.855Z,4.53
2017-03-07T15:59:59.555Z,4.56
2017-03-07T16:01:11.871Z,4.52
2017-03-07T16:02:24.543Z,4.53
2017-03-07T16:03:37.634Z,4.49
2017-03-07T16:04:50.726Z,4.48
2017-03-07T16:06:03.386Z,4.49
2017-03-07T16:07:15.682Z,4.49
2017-03-07T16:08:28.771Z,4.43
2017-03-07T16:09:41.865Z,4.42
2017-03-07T16:10:55.013Z,4.43
2017-03-07T16:12:08.111Z,4.34
2017-03-07T16:13:20.376Z,4.34
2017-03-07T16:14:33.475Z,4.3
2017-03-07T16:15:45.821Z,4.25
2017-03-07T16:16:58.873Z,4.32